Aérodrome :
LOGIN :

S'inscrire | Disclaimer

   EN    FR    IT 

 










Légende :    VFR   VFR Marginal   IFR   IFR Intensif   IFR Très Intensif
Visi : 
Plafond : 
>= 8 km
>= 3000ft
5 à 8 km
1000 à 3000 ft
1500m à 5 km
500 à 1000 ft
800 à 1500m
200 à 500 ft
< 800m
< 200 ft
Symboles :   Orages  Brouillard  Fortes neiges  Fortes précipitations  Vent > 20 kt
SIGMETs :   Divers  Orages  Givrage  Turbulence  Onde Orograph.  Cendres Volcan.






- Altitude de l'aérodrome : 313 ft
- Code IATA : LEH


LFOH - Le Havre Octeville

DERNIER METAR :
  • 080600Z AUTO 08002KT 8000 NSC M03/M04 Q1035 NOSIG

METARs EXPIRÉS :
  • 080530Z AUTO 09004KT 8000 NSC M02/M03 Q1035
  • 080500Z AUTO 08003KT 8000 NSC M02/M03 Q1035
  • 080430Z AUTO 09004KT 9000 NSC M02/M03 Q1036
  • 080400Z AUTO 09003KT 9000 NSC M02/M03 Q1036
  • 080330Z AUTO 09004KT CAVOK M02/M03 Q1036
  • 080300Z AUTO 08004KT CAVOK M01/M03 Q1036

TAF TAF LFOH
Valide du 08 à 06h jusqu'au 09 à 06h UTC


080500Z 0806/0906 09010KT CAVOK
BECMG 0819/0821 15010KT
BECMG 0901/0903 24010KT
BECMG 0903/0906 BKN009
ATIS : +33 2 35 54 64 93



MET'MAP, la Météo Aéronautique d'un coup d'oeil ! - Copyright ORBIFLY Décembre 2007 - Disclaimer

ORBIFLY MET'MAP TEAM :

Programmation & Développement : Alexandra Zaïnal
Sur une idée originale de : Baudouin d'Aumeries
Soutien technique & logistique : Manuel Goepfert
Assistance : Marc-Olivier Méhu




SOURCES & CREDITS :

   NOAA